• Join FlightAware (Why Join?)
  • Login
  • US Flag 
04:46PM EDT


 

Airport Tracker/Info


-or-


 

Live Flight TrackerFlight Track Log ✈ RPA3896 ✈ 25-Aug-2013 ✈ KEWR - KALB

Flight Track Log - Related Links

Times and Time Zones

All times are in EDT time to prevent confusion due to time zone crossing. See the RPA3896 flight status page for this flight to view local times or setup timezone preferences in your user account.

Time Position Orientation Groundspeed Altitude Reporting Facility
EDT Latitude Longitude Course Direction KTS MPH feet Rate Location/Type
03:34PM 40.6667 -74.1833 25° Northeast 180 207 1,200  Level New York TRACON
03:35PM 40.6167 -74.2000 194° South 233 268 3,500 2,340 Climbing New York TRACON
03:36PM 40.6500 -74.2667 303° West 251 289 5,900 1,260 Climbing New York TRACON
03:37PM 41.1028 -74.1333 North  Level FlightAware Approximate
03:37PM 40.7167 -74.2500 11° North 274 315 6,100  Level New York TRACON
03:38PM 41.2026 -74.0999 26° Northeast  Level FlightAware Approximate
03:38PM 40.7833 -74.2333 11° North 257 296 6,000  Level New York TRACON
03:39PM 41.2978 -74.0393 26° Northeast  Level FlightAware Approximate
03:39PM 40.8667 -74.2167 North 266 306 6,100  Level New York TRACON
03:40PM 41.3932 -73.9790 25° Northeast  Level FlightAware Approximate
03:40PM 40.9333 -74.2000 11° North 263 303 6,100  Level New York TRACON
03:41PM 41.0000 -74.1833 11° North 263 303 6,100  Level New York TRACON
03:42PM 41.0833 -74.1500 17° North 265 305 6,100 60 Level New York TRACON
03:43PM 41.1500 -74.1333 11° North 264 304 6,300 840 Climbing New York TRACON
03:44PM 41.2000 -74.0667 45° Northeast 284 327 7,800 1,620 Climbing New York TRACON
03:45PM 41.2167 -73.9667 77° East 292 336 9,600 1,560 Climbing New York TRACON
03:46PM 41.2333 -73.8500 79° East 299 344 11,000 720 Climbing New York TRACON
03:47PM 41.2500 -73.7333 79° East 334 384 11,100  Climbing New York TRACON
03:49PM 41.3219 -73.5153 66° East 320 368 11,000 -60 Descending Boston Center
03:50PM 41.3958 -73.4225 43° Northeast 320 368 11,000  Level Boston Center
03:51PM 41.4569 -73.3486 42° Northeast 328 377 11,000  Level Boston Center
03:52PM 41.5547 -73.3528 358° North 297 342 11,000  Level Boston Center
03:53PM 41.6336 -73.3872 342° North 299 344 11,000  Level Boston Center
03:54PM 41.7272 -73.4247 343° North 315 362 11,000  Level Boston Center
03:55PM 41.8186 -73.4542 346° North 323 372 11,000  Level Boston Center
03:56PM 41.9036 -73.4861 344° North 323 372 11,000  Level Boston Center
03:57PM 41.9889 -73.5211 343° North 318 366 11,000  Level Boston Center
03:58PM 42.0678 -73.5503 345° North 323 372 11,000  Level Boston Center
03:59PM 42.1550 -73.5828 345° North 323 372 11,000 -180 Level Boston Center
04:00PM 42.2381 -73.6122 345° North 317 365 10,700 -1,020 Descending Boston Center
04:01PM 42.3128 -73.6361 347° North 258 297 9,000 -1,740 Descending Boston Center
04:02PM 42.3814 -73.6458 354° North 249 287 7,300 -1,680 Descending Boston Center
04:03PM 42.4503 -73.6417 North 250 288 5,600 -1,860 Descending Boston Center
04:04PM 42.5211 -73.6569 351° North 237 273 3,600 -1,320 Descending Boston Center
04:05PM 42.5792 -73.6750 347° North 235 270 3,000 -300 Descending Boston Center
04:06PM 42.6497 -73.6933 349° North 235 270 3,000 -480 Level Boston Center
04:07PM 42.7081 -73.7144 345° North 235 270 2,100 -660 Descending Boston Center
04:08PM 42.7703 -73.7328 348° North 235 270 1,700 -300 Descending Boston Center
04:09PM 42.8242 -73.7592 340° North 185 213 1,600 -240 Descending Boston Center
04:10PM 42.8047 -73.8069 241° Southwest 146 168 1,300 -540 Descending Boston Center
04:11PM 42.7714 -73.8092 183° South 104 120 600 -720 Descending Boston Center